AAR567 RKSI-ZMCK
Flight info
| Callsign | AAR567 |
|---|---|
| Flight time | N/A |
| Altitude | 34000 |
| Route | NOPIK2Y NOPIK Y697 AGAVO/K0793S0660 A591 IKEKA W4 FZ/K0824S1100 W4 HCH W200 DOVIV W55 PAMRU W34 LADIX B339 POLHO Y345 MENUG MENUG2W |
| Aircraft | A21N/M-SDE3FGHIRWY/LB1 |
Departure
| Time | N/A |
|---|---|
| Airport | Incheon International Airport (RKSI) |
Arrival
| Time | 2026-04-19 09:22 |
|---|---|
| Airport | Ulaanbaatar Chinggis Khaan International Airport (ZMCK) |
| Time | Latitude | Longitude | Altitude | Speed | Heading |
|---|---|---|---|---|---|
| 2026-04-19 06:25 | 37.40084 | 125.47462 | 21517 ft | 409 kts | 270° |
| 2026-04-19 06:26 | 37.40031 | 125.43910 | 22025 ft | 411 kts | 270° |
| 2026-04-19 06:26 | 37.39977 | 125.40306 | 22547 ft | 412 kts | 271° |
| 2026-04-19 06:26 | 37.39920 | 125.36723 | 23049 ft | 414 kts | 271° |
| 2026-04-19 06:26 | 37.39862 | 125.33110 | 23517 ft | 416 kts | 270° |
| 2026-04-19 06:27 | 37.39802 | 125.29479 | 23972 ft | 418 kts | 271° |
| 2026-04-19 06:27 | 37.39741 | 125.25831 | 24417 ft | 420 kts | 271° |
| 2026-04-19 06:27 | 37.39680 | 125.22166 | 24845 ft | 422 kts | 271° |
| 2026-04-19 06:27 | 37.39618 | 125.18481 | 25248 ft | 425 kts | 271° |
| 2026-04-19 06:28 | 37.39555 | 125.14774 | 25640 ft | 427 kts | 271° |
| 2026-04-19 06:28 | 37.39490 | 125.11045 | 26014 ft | 429 kts | 272° |
| 2026-04-19 06:28 | 37.39423 | 125.07297 | 26398 ft | 431 kts | 272° |
| 2026-04-19 06:28 | 37.39354 | 125.03534 | 26778 ft | 433 kts | 272° |
| 2026-04-19 06:29 | 37.39283 | 124.99774 | 27279 ft | 431 kts | 272° |
| 2026-04-19 06:29 | 37.39213 | 124.96040 | 27823 ft | 428 kts | 273° |
| 2026-04-19 06:29 | 37.39141 | 124.92326 | 28306 ft | 426 kts | 273° |
| 2026-04-19 06:29 | 37.39069 | 124.88627 | 28771 ft | 424 kts | 273° |
| 2026-04-19 06:30 | 37.38996 | 124.84942 | 29211 ft | 423 kts | 273° |
| 2026-04-19 06:30 | 37.38922 | 124.81270 | 29656 ft | 421 kts | 274° |
| 2026-04-19 06:30 | 37.38846 | 124.77617 | 30117 ft | 419 kts | 274° |
| 2026-04-19 06:30 | 37.38771 | 124.73986 | 30571 ft | 416 kts | 274° |
| 2026-04-19 06:31 | 37.38698 | 124.70367 | 30946 ft | 416 kts | 274° |
| 2026-04-19 06:31 | 37.38624 | 124.66752 | 31303 ft | 415 kts | 274° |
| 2026-04-19 06:31 | 37.38547 | 124.63139 | 31629 ft | 415 kts | 274° |
| 2026-04-19 06:31 | 37.38465 | 124.59528 | 31979 ft | 414 kts | 274° |
| 2026-04-19 06:32 | 37.38382 | 124.55925 | 32311 ft | 413 kts | 274° |
| 2026-04-19 06:32 | 37.38300 | 124.52326 | 32637 ft | 413 kts | 273° |
| 2026-04-19 06:32 | 37.38078 | 124.48727 | 32920 ft | 416 kts | 268° |
| 2026-04-19 06:32 | 37.37588 | 124.45139 | 33203 ft | 419 kts | 263° |
| 2026-04-19 06:33 | 37.36827 | 124.41601 | 33483 ft | 422 kts | 257° |
| 2026-04-19 06:33 | 37.35813 | 124.38174 | 33687 ft | 427 kts | 252° |
| 2026-04-19 06:33 | 37.34502 | 124.34778 | 33879 ft | 431 kts | 245° |
| 2026-04-19 06:33 | 37.32962 | 124.31540 | 34032 ft | 435 kts | 242° |
| 2026-04-19 06:34 | 37.29675 | 124.25073 | 34041 ft | 444 kts | 242° |
| 2026-04-19 06:34 | 37.26360 | 124.18517 | 34038 ft | 447 kts | 242° |
| 2026-04-19 06:35 | 37.23012 | 124.11881 | 34046 ft | 457 kts | 241° |
| 2026-04-19 06:35 | 37.19444 | 124.05182 | 34047 ft | 469 kts | 240° |
| 2026-04-19 06:36 | 37.15791 | 123.98354 | 34031 ft | 474 kts | 241° |
| 2026-04-19 06:36 | 37.12226 | 123.91444 | 34042 ft | 475 kts | 242° |
| 2026-04-19 06:37 | 37.08633 | 123.84450 | 34034 ft | 476 kts | 242° |
| 2026-04-19 06:37 | 37.05052 | 123.77514 | 34036 ft | 477 kts | 242° |
| 2026-04-19 06:38 | 37.01457 | 123.70575 | 34035 ft | 476 kts | 242° |
| 2026-04-19 06:38 | 36.97889 | 123.63703 | 34032 ft | 474 kts | 242° |
| 2026-04-19 06:39 | 36.94302 | 123.56809 | 34033 ft | 474 kts | 242° |
| 2026-04-19 06:39 | 36.90705 | 123.49905 | 34039 ft | 474 kts | 242° |
| 2026-04-19 06:40 | 36.87270 | 123.42896 | 34027 ft | 469 kts | 250° |
| 2026-04-19 06:40 | 36.85375 | 123.35294 | 34033 ft | 456 kts | 267° |
| 2026-04-19 06:41 | 36.85296 | 123.27520 | 34035 ft | 445 kts | 283° |
| 2026-04-19 06:41 | 36.86747 | 123.20158 | 34041 ft | 438 kts | 292° |
| 2026-04-19 06:42 | 36.88538 | 123.12932 | 34034 ft | 435 kts | 292° |
| 2026-04-19 06:42 | 36.90312 | 123.05695 | 34040 ft | 435 kts | 292° |
| 2026-04-19 06:43 | 36.92054 | 122.98478 | 34037 ft | 435 kts | 291° |
| 2026-04-19 06:43 | 36.93777 | 122.91283 | 34037 ft | 434 kts | 291° |
| 2026-04-19 06:44 | 36.95490 | 122.84097 | 34037 ft | 432 kts | 291° |
| 2026-04-19 06:44 | 36.97197 | 122.76924 | 34038 ft | 429 kts | 292° |
| 2026-04-19 06:45 | 36.98887 | 122.69803 | 34037 ft | 429 kts | 291° |
| 2026-04-19 06:45 | 37.00571 | 122.62676 | 34035 ft | 428 kts | 292° |
| 2026-04-19 06:46 | 37.02246 | 122.55563 | 34033 ft | 426 kts | 292° |
| 2026-04-19 06:46 | 37.03923 | 122.48434 | 34036 ft | 425 kts | 291° |
| 2026-04-19 06:47 | 37.05694 | 122.41447 | 34037 ft | 420 kts | 297° |
| 2026-04-19 06:47 | 37.08322 | 122.35040 | 34035 ft | 410 kts | 307° |
| 2026-04-19 06:48 | 37.11743 | 122.29448 | 34035 ft | 405 kts | 313° |
| 2026-04-19 06:48 | 37.15405 | 122.24113 | 34036 ft | 404 kts | 313° |
| 2026-04-19 06:49 | 37.18731 | 122.18375 | 34034 ft | 409 kts | 304° |
| 2026-04-19 06:49 | 37.21199 | 122.11991 | 34030 ft | 411 kts | 295° |
| 2026-04-19 06:50 | 37.23015 | 122.05209 | 34028 ft | 412 kts | 292° |
| 2026-04-19 06:50 | 37.24770 | 121.98394 | 34025 ft | 411 kts | 292° |
| 2026-04-19 06:51 | 37.26514 | 121.91585 | 34017 ft | 411 kts | 292° |
| 2026-04-19 06:51 | 37.28254 | 121.84805 | 34024 ft | 408 kts | 292° |
| 2026-04-19 06:52 | 37.29981 | 121.78042 | 34025 ft | 409 kts | 292° |
| 2026-04-19 06:52 | 37.31715 | 121.71257 | 34027 ft | 409 kts | 292° |
| 2026-04-19 06:53 | 37.33443 | 121.64472 | 34018 ft | 406 kts | 291° |
| 2026-04-19 06:53 | 37.35151 | 121.57737 | 34006 ft | 406 kts | 291° |
| 2026-04-19 06:54 | 37.36848 | 121.51025 | 33998 ft | 404 kts | 291° |
| 2026-04-19 06:54 | 37.38537 | 121.44318 | 33994 ft | 404 kts | 291° |
| 2026-04-19 06:55 | 37.40223 | 121.37627 | 33987 ft | 403 kts | 291° |
| 2026-04-19 06:55 | 37.41906 | 121.30909 | 33988 ft | 403 kts | 291° |
| 2026-04-19 06:56 | 37.43588 | 121.24180 | 33984 ft | 403 kts | 290° |
| 2026-04-19 06:56 | 37.45313 | 121.17538 | 33985 ft | 400 kts | 293° |
| 2026-04-19 06:57 | 37.47353 | 121.11028 | 33984 ft | 400 kts | 294° |
| 2026-04-19 06:57 | 37.49421 | 121.04549 | 33983 ft | 400 kts | 294° |
| 2026-04-19 06:58 | 37.51489 | 120.98046 | 33970 ft | 401 kts | 294° |
| 2026-04-19 06:58 | 37.53542 | 120.91567 | 33966 ft | 401 kts | 294° |
| 2026-04-19 06:59 | 37.55596 | 120.85068 | 33968 ft | 399 kts | 294° |
| 2026-04-19 06:59 | 37.57649 | 120.78555 | 33975 ft | 399 kts | 294° |
| 2026-04-19 07:00 | 37.59715 | 120.72115 | 33974 ft | 398 kts | 294° |
| 2026-04-19 07:00 | 37.61842 | 120.65672 | 33976 ft | 397 kts | 295° |
| 2026-04-19 07:01 | 37.63948 | 120.59268 | 33981 ft | 398 kts | 294° |
| 2026-04-19 07:01 | 37.66287 | 120.52957 | 33976 ft | 398 kts | 299° |
| 2026-04-19 07:02 | 37.68995 | 120.46903 | 33974 ft | 396 kts | 301° |
| 2026-04-19 07:02 | 37.71744 | 120.40868 | 33971 ft | 396 kts | 301° |
| 2026-04-19 07:03 | 37.74476 | 120.34867 | 33971 ft | 395 kts | 300° |
| 2026-04-19 07:03 | 37.77201 | 120.28875 | 33966 ft | 394 kts | 300° |
| 2026-04-19 07:04 | 37.79934 | 120.22849 | 33966 ft | 394 kts | 300° |
| 2026-04-19 07:04 | 37.82661 | 120.16835 | 33960 ft | 393 kts | 300° |
| 2026-04-19 07:05 | 37.85363 | 120.10847 | 33961 ft | 393 kts | 300° |
| 2026-04-19 07:05 | 37.88067 | 120.04855 | 33959 ft | 392 kts | 300° |
| 2026-04-19 07:06 | 37.90769 | 119.98852 | 33951 ft | 393 kts | 300° |
| 2026-04-19 07:06 | 37.93460 | 119.92860 | 33951 ft | 393 kts | 300° |
| 2026-04-19 07:07 | 37.96154 | 119.86855 | 33949 ft | 394 kts | 300° |
| 2026-04-19 07:07 | 37.98844 | 119.80844 | 33943 ft | 392 kts | 300° |
| 2026-04-19 07:08 | 38.01527 | 119.74834 | 33939 ft | 392 kts | 299° |
| 2026-04-19 07:08 | 38.04208 | 119.68825 | 33933 ft | 393 kts | 299° |
| 2026-04-19 07:09 | 38.06899 | 119.62775 | 33929 ft | 392 kts | 299° |
| 2026-04-19 07:09 | 38.09554 | 119.56782 | 33926 ft | 392 kts | 299° |
| 2026-04-19 07:10 | 38.11966 | 119.50602 | 33922 ft | 391 kts | 294° |
| 2026-04-19 07:10 | 38.14063 | 119.44249 | 33921 ft | 391 kts | 293° |
| 2026-04-19 07:11 | 38.16140 | 119.37885 | 33913 ft | 391 kts | 293° |
| 2026-04-19 07:11 | 38.18213 | 119.31512 | 33910 ft | 390 kts | 292° |
| 2026-04-19 07:12 | 38.20271 | 119.25165 | 33908 ft | 390 kts | 292° |
| 2026-04-19 07:12 | 38.22340 | 119.18777 | 33908 ft | 390 kts | 292° |
| 2026-04-19 07:13 | 38.24394 | 119.12405 | 33914 ft | 390 kts | 292° |
| 2026-04-19 07:13 | 38.26445 | 119.06042 | 33912 ft | 389 kts | 292° |
| 2026-04-19 07:14 | 38.28494 | 118.99663 | 33911 ft | 390 kts | 292° |
| 2026-04-19 07:14 | 38.30537 | 118.93298 | 33912 ft | 390 kts | 291° |
| 2026-04-19 07:15 | 38.32574 | 118.86918 | 33913 ft | 389 kts | 291° |
| 2026-04-19 07:16 | 38.35614 | 118.77383 | 33911 ft | 389 kts | 291° |
| 2026-04-19 07:16 | 38.37644 | 118.71033 | 33909 ft | 388 kts | 291° |
| 2026-04-19 07:17 | 38.39680 | 118.64662 | 33910 ft | 388 kts | 291° |
| 2026-04-19 07:17 | 38.41712 | 118.58295 | 33909 ft | 388 kts | 291° |
| 2026-04-19 07:18 | 38.43721 | 118.51973 | 33911 ft | 387 kts | 290° |
| 2026-04-19 07:18 | 38.45744 | 118.45589 | 33908 ft | 387 kts | 291° |
| 2026-04-19 07:19 | 38.47749 | 118.39253 | 33902 ft | 387 kts | 290° |
| 2026-04-19 07:19 | 38.49748 | 118.32921 | 33906 ft | 386 kts | 290° |
| 2026-04-19 07:20 | 38.51746 | 118.26567 | 33899 ft | 386 kts | 290° |
| 2026-04-19 07:20 | 38.53737 | 118.20234 | 33903 ft | 385 kts | 289° |
| 2026-04-19 07:21 | 38.55719 | 118.13927 | 33906 ft | 385 kts | 291° |
| 2026-04-19 07:21 | 38.58051 | 118.07770 | 33912 ft | 386 kts | 295° |
| 2026-04-19 07:22 | 38.60883 | 118.01899 | 33913 ft | 390 kts | 301° |
| 2026-04-19 07:22 | 38.64174 | 117.96422 | 33915 ft | 391 kts | 305° |
| 2026-04-19 07:23 | 38.67909 | 117.91250 | 33921 ft | 394 kts | 308° |
| 2026-04-19 07:23 | 38.71681 | 117.86196 | 33920 ft | 394 kts | 308° |
| 2026-04-19 07:24 | 38.75463 | 117.81130 | 33923 ft | 394 kts | 308° |
| 2026-04-19 07:24 | 38.79219 | 117.76091 | 33927 ft | 395 kts | 307° |
| 2026-04-19 07:25 | 38.83013 | 117.70996 | 33924 ft | 393 kts | 307° |
| 2026-04-19 07:25 | 38.86760 | 117.65954 | 33923 ft | 392 kts | 307° |
| 2026-04-19 07:26 | 38.90527 | 117.60881 | 33924 ft | 391 kts | 308° |
| 2026-04-19 07:26 | 38.94261 | 117.55843 | 33928 ft | 392 kts | 307° |
| 2026-04-19 07:27 | 38.98006 | 117.50777 | 33934 ft | 391 kts | 307° |
| 2026-04-19 07:27 | 39.01729 | 117.45686 | 33941 ft | 391 kts | 305° |
| 2026-04-19 07:28 | 39.04927 | 117.40115 | 33943 ft | 383 kts | 297° |
| 2026-04-19 07:28 | 39.07345 | 117.34110 | 33946 ft | 379 kts | 289° |
| 2026-04-19 07:29 | 39.09004 | 117.27731 | 33937 ft | 375 kts | 282° |
| 2026-04-19 07:29 | 39.10003 | 117.21207 | 33938 ft | 372 kts | 278° |
| 2026-04-19 07:30 | 39.10903 | 117.14665 | 33945 ft | 372 kts | 279° |
| 2026-04-19 07:30 | 39.12619 | 117.08389 | 33948 ft | 378 kts | 294° |
| 2026-04-19 07:31 | 39.15816 | 117.02895 | 33953 ft | 390 kts | 309° |
| 2026-04-19 07:31 | 39.20280 | 116.98805 | 33956 ft | 409 kts | 325° |
| 2026-04-19 07:31 | 39.22969 | 116.97429 | 33956 ft | 423 kts | 334° |
| 2026-04-19 07:32 | 39.25855 | 116.96599 | 33962 ft | 429 kts | 340° |
| 2026-04-19 07:32 | 39.31755 | 116.95355 | 33960 ft | 434 kts | 341° |
| 2026-04-19 07:33 | 39.37751 | 116.94139 | 33959 ft | 432 kts | 341° |
| 2026-04-19 07:33 | 39.43675 | 116.92933 | 33966 ft | 436 kts | 341° |
| 2026-04-19 07:34 | 39.49646 | 116.91713 | 33963 ft | 435 kts | 340° |
| 2026-04-19 07:34 | 39.55618 | 116.90484 | 33966 ft | 435 kts | 341° |
| 2026-04-19 07:35 | 39.61627 | 116.89245 | 33968 ft | 436 kts | 340° |
| 2026-04-19 07:35 | 39.67636 | 116.88003 | 33972 ft | 439 kts | 340° |
| 2026-04-19 07:36 | 39.73649 | 116.86764 | 33972 ft | 438 kts | 340° |
| 2026-04-19 07:36 | 39.79652 | 116.85519 | 33982 ft | 440 kts | 340° |
| 2026-04-19 07:37 | 39.85712 | 116.84304 | 33979 ft | 442 kts | 341° |
| 2026-04-19 07:37 | 39.91809 | 116.83103 | 33989 ft | 440 kts | 340° |
| 2026-04-19 07:38 | 39.97886 | 116.81887 | 34004 ft | 445 kts | 341° |
| 2026-04-19 07:38 | 40.03997 | 116.80674 | 34009 ft | 445 kts | 341° |
| 2026-04-19 07:39 | 40.10114 | 116.79449 | 34016 ft | 444 kts | 340° |
| 2026-04-19 07:39 | 40.16188 | 116.78233 | 34017 ft | 443 kts | 340° |
| 2026-04-19 07:40 | 40.22285 | 116.77004 | 34025 ft | 446 kts | 340° |
| 2026-04-19 07:40 | 40.28392 | 116.75776 | 34022 ft | 446 kts | 340° |
| 2026-04-19 07:41 | 40.34420 | 116.74203 | 34027 ft | 438 kts | 334° |
| 2026-04-19 07:41 | 40.40210 | 116.71981 | 34029 ft | 432 kts | 331° |
| 2026-04-19 07:42 | 40.45954 | 116.69640 | 34033 ft | 434 kts | 331° |
| 2026-04-19 07:42 | 40.51660 | 116.67322 | 34029 ft | 434 kts | 331° |
| 2026-04-19 07:43 | 40.57429 | 116.64979 | 34031 ft | 434 kts | 330° |
| 2026-04-19 07:43 | 40.63216 | 116.62617 | 34033 ft | 435 kts | 331° |
| 2026-04-19 07:44 | 40.68972 | 116.60278 | 34033 ft | 436 kts | 330° |
| 2026-04-19 07:44 | 40.74802 | 116.58039 | 34033 ft | 441 kts | 334° |
| 2026-04-19 07:45 | 40.80887 | 116.56512 | 34045 ft | 452 kts | 340° |
| 2026-04-19 07:45 | 40.87236 | 116.55754 | 34046 ft | 459 kts | 343° |
| 2026-04-19 07:46 | 40.93595 | 116.55188 | 34043 ft | 460 kts | 343° |
| 2026-04-19 07:46 | 41.00000 | 116.54610 | 34047 ft | 459 kts | 343° |
| 2026-04-19 07:47 | 41.06352 | 116.54021 | 34037 ft | 459 kts | 343° |
| 2026-04-19 07:47 | 41.12728 | 116.53423 | 34046 ft | 459 kts | 342° |
| 2026-04-19 07:48 | 41.19033 | 116.52487 | 34041 ft | 449 kts | 336° |
| 2026-04-19 07:48 | 41.24976 | 116.50433 | 34050 ft | 436 kts | 327° |
| 2026-04-19 07:49 | 41.30484 | 116.47334 | 34056 ft | 424 kts | 319° |
| 2026-04-19 07:49 | 41.35514 | 116.43511 | 34047 ft | 416 kts | 316° |
| 2026-04-19 07:50 | 41.40465 | 116.39568 | 34038 ft | 414 kts | 316° |
| 2026-04-19 07:50 | 41.45383 | 116.35654 | 34032 ft | 414 kts | 315° |
| 2026-04-19 07:51 | 41.50320 | 116.31728 | 34041 ft | 414 kts | 314° |
| 2026-04-19 07:51 | 41.55268 | 116.27782 | 34034 ft | 414 kts | 314° |
| 2026-04-19 07:52 | 41.60273 | 116.23792 | 34038 ft | 418 kts | 315° |
| 2026-04-19 07:52 | 41.65236 | 116.19830 | 34031 ft | 416 kts | 315° |
| 2026-04-19 07:53 | 41.70227 | 116.15842 | 34042 ft | 418 kts | 314° |
| 2026-04-19 07:53 | 41.75187 | 116.11868 | 34036 ft | 416 kts | 314° |
| 2026-04-19 07:54 | 41.80180 | 116.07854 | 34043 ft | 420 kts | 314° |
| 2026-04-19 07:54 | 41.85215 | 116.03803 | 34055 ft | 422 kts | 314° |
| 2026-04-19 07:55 | 41.90218 | 115.99773 | 34061 ft | 421 kts | 314° |
| 2026-04-19 07:55 | 41.95222 | 115.95716 | 34057 ft | 421 kts | 313° |
| 2026-04-19 07:56 | 42.00013 | 115.91411 | 34043 ft | 413 kts | 310° |
| 2026-04-19 07:56 | 42.04737 | 115.87038 | 34051 ft | 413 kts | 310° |
| 2026-04-19 07:57 | 42.09464 | 115.82644 | 34045 ft | 414 kts | 310° |
| 2026-04-19 07:57 | 42.14191 | 115.78258 | 34050 ft | 411 kts | 310° |
| 2026-04-19 07:58 | 42.18913 | 115.73861 | 34059 ft | 414 kts | 310° |
| 2026-04-19 07:58 | 42.23618 | 115.69476 | 34058 ft | 411 kts | 310° |
| 2026-04-19 07:59 | 42.28307 | 115.65108 | 34079 ft | 412 kts | 310° |
| 2026-04-19 07:59 | 42.33019 | 115.60704 | 34060 ft | 410 kts | 310° |
| 2026-04-19 08:00 | 42.37705 | 115.56319 | 34070 ft | 412 kts | 310° |
| 2026-04-19 08:00 | 42.42395 | 115.51927 | 34077 ft | 411 kts | 310° |
| 2026-04-19 08:01 | 42.47123 | 115.47485 | 34075 ft | 412 kts | 310° |
| 2026-04-19 08:01 | 42.51802 | 115.43076 | 34081 ft | 413 kts | 310° |
| 2026-04-19 08:02 | 42.56521 | 115.38623 | 34066 ft | 414 kts | 310° |
| 2026-04-19 08:02 | 42.61234 | 115.34171 | 34079 ft | 414 kts | 310° |
| 2026-04-19 08:03 | 42.65939 | 115.29720 | 34077 ft | 412 kts | 310° |
| 2026-04-19 08:03 | 42.70632 | 115.25269 | 34073 ft | 414 kts | 310° |
| 2026-04-19 08:04 | 42.75352 | 115.20783 | 34068 ft | 412 kts | 310° |
| 2026-04-19 08:04 | 42.80037 | 115.16324 | 34063 ft | 413 kts | 310° |
| 2026-04-19 08:05 | 42.84744 | 115.11829 | 34071 ft | 416 kts | 310° |
| 2026-04-19 08:05 | 42.89484 | 115.07300 | 34075 ft | 416 kts | 311° |
| 2026-04-19 08:06 | 42.94196 | 115.02789 | 34087 ft | 415 kts | 311° |
| 2026-04-19 08:06 | 42.98914 | 114.98264 | 34086 ft | 414 kts | 310° |
| 2026-04-19 08:07 | 43.03643 | 114.93714 | 34073 ft | 416 kts | 311° |
| 2026-04-19 08:07 | 43.08382 | 114.89144 | 34095 ft | 419 kts | 311° |
| 2026-04-19 08:08 | 43.13105 | 114.84626 | 34089 ft | 416 kts | 312° |
| 2026-04-19 08:08 | 43.17907 | 114.80151 | 34075 ft | 418 kts | 313° |
| 2026-04-19 08:09 | 43.22677 | 114.75700 | 34083 ft | 416 kts | 313° |
| 2026-04-19 08:09 | 43.27436 | 114.71244 | 34113 ft | 415 kts | 313° |
| 2026-04-19 08:10 | 43.32199 | 114.66769 | 34078 ft | 417 kts | 313° |
| 2026-04-19 08:10 | 43.36968 | 114.62278 | 34083 ft | 417 kts | 314° |
| 2026-04-19 08:11 | 43.41753 | 114.57764 | 34079 ft | 415 kts | 314° |
| 2026-04-19 08:11 | 43.46477 | 114.53302 | 34085 ft | 416 kts | 313° |
| 2026-04-19 08:12 | 43.51243 | 114.48783 | 34087 ft | 415 kts | 314° |
| 2026-04-19 08:12 | 43.55973 | 114.44295 | 34078 ft | 415 kts | 314° |
| 2026-04-19 08:13 | 43.60731 | 114.39770 | 34075 ft | 415 kts | 314° |
| 2026-04-19 08:13 | 43.65462 | 114.35260 | 34078 ft | 414 kts | 314° |
| 2026-04-19 08:14 | 43.70176 | 114.30764 | 34089 ft | 412 kts | 313° |
| 2026-04-19 08:14 | 43.77227 | 114.24018 | 34073 ft | 413 kts | 314° |
| 2026-04-19 08:15 | 43.81944 | 114.19488 | 34104 ft | 412 kts | 314° |
| 2026-04-19 08:15 | 43.86670 | 114.14947 | 34085 ft | 414 kts | 314° |
| 2026-04-19 08:16 | 43.91361 | 114.10428 | 34087 ft | 411 kts | 314° |
| 2026-04-19 08:16 | 43.96043 | 114.05909 | 34075 ft | 410 kts | 314° |
| 2026-04-19 08:17 | 44.00687 | 114.01422 | 34070 ft | 408 kts | 314° |
| 2026-04-19 08:17 | 44.05367 | 113.96890 | 34085 ft | 409 kts | 314° |
| 2026-04-19 08:18 | 44.09998 | 113.92391 | 34083 ft | 408 kts | 315° |
| 2026-04-19 08:18 | 44.14671 | 113.87846 | 34078 ft | 411 kts | 315° |
| 2026-04-19 08:19 | 44.19337 | 113.83299 | 34086 ft | 413 kts | 315° |
| 2026-04-19 08:19 | 44.24036 | 113.78713 | 34085 ft | 412 kts | 315° |
| 2026-04-19 08:20 | 44.28701 | 113.74149 | 34072 ft | 412 kts | 315° |
| 2026-04-19 08:20 | 44.33385 | 113.69557 | 34079 ft | 413 kts | 315° |
| 2026-04-19 08:21 | 44.38065 | 113.64960 | 34055 ft | 413 kts | 316° |
| 2026-04-19 08:21 | 44.42749 | 113.60349 | 34058 ft | 412 kts | 316° |
| 2026-04-19 08:22 | 44.47425 | 113.55740 | 34051 ft | 412 kts | 316° |
| 2026-04-19 08:22 | 44.52115 | 113.51101 | 34049 ft | 414 kts | 316° |
| 2026-04-19 08:23 | 44.56788 | 113.46476 | 34050 ft | 413 kts | 316° |
| 2026-04-19 08:23 | 44.61503 | 113.41795 | 34045 ft | 415 kts | 316° |
| 2026-04-19 08:24 | 44.66190 | 113.37133 | 34040 ft | 416 kts | 317° |
| 2026-04-19 08:24 | 44.70899 | 113.32440 | 34037 ft | 416 kts | 316° |
| 2026-04-19 08:25 | 44.75397 | 113.27434 | 34039 ft | 409 kts | 311° |
| 2026-04-19 08:25 | 44.79450 | 113.21935 | 34027 ft | 406 kts | 306° |
| 2026-04-19 08:26 | 44.83091 | 113.15932 | 34029 ft | 403 kts | 302° |
| 2026-04-19 08:26 | 44.86445 | 113.09635 | 34044 ft | 403 kts | 301° |
| 2026-04-19 08:27 | 44.89789 | 113.03281 | 34043 ft | 403 kts | 301° |
| 2026-04-19 08:27 | 44.93101 | 112.96968 | 34046 ft | 404 kts | 301° |
| 2026-04-19 08:28 | 44.96450 | 112.90576 | 34052 ft | 403 kts | 301° |
| 2026-04-19 08:28 | 44.99768 | 112.84227 | 34047 ft | 405 kts | 301° |
| 2026-04-19 08:29 | 45.03105 | 112.77824 | 34051 ft | 405 kts | 301° |
| 2026-04-19 08:29 | 45.06444 | 112.71405 | 34056 ft | 404 kts | 302° |
| 2026-04-19 08:30 | 45.09754 | 112.65031 | 34061 ft | 404 kts | 302° |
| 2026-04-19 08:30 | 45.13072 | 112.58621 | 34066 ft | 404 kts | 302° |
| 2026-04-19 08:31 | 45.16370 | 112.52244 | 34066 ft | 405 kts | 302° |
| 2026-04-19 08:31 | 45.19683 | 112.45815 | 34075 ft | 404 kts | 302° |
| 2026-04-19 08:32 | 45.22995 | 112.39375 | 34068 ft | 405 kts | 302° |
| 2026-04-19 08:32 | 45.26299 | 112.32936 | 34069 ft | 404 kts | 302° |
| 2026-04-19 08:33 | 45.29577 | 112.26536 | 34066 ft | 404 kts | 302° |
| 2026-04-19 08:33 | 45.32869 | 112.20094 | 34069 ft | 405 kts | 302° |
| 2026-04-19 08:34 | 45.36162 | 112.13630 | 34068 ft | 406 kts | 302° |
| 2026-04-19 08:34 | 45.39457 | 112.07156 | 34074 ft | 405 kts | 302° |
| 2026-04-19 08:35 | 45.42743 | 112.00684 | 34086 ft | 405 kts | 302° |
| 2026-04-19 08:35 | 45.46024 | 111.94200 | 34088 ft | 405 kts | 302° |
| 2026-04-19 08:36 | 45.49304 | 111.87707 | 34077 ft | 405 kts | 302° |
| 2026-04-19 08:36 | 45.52583 | 111.81200 | 34078 ft | 406 kts | 303° |
| 2026-04-19 08:37 | 45.55864 | 111.74677 | 34086 ft | 406 kts | 303° |
| 2026-04-19 08:37 | 45.59134 | 111.68161 | 34090 ft | 405 kts | 303° |
| 2026-04-19 08:38 | 45.62403 | 111.61630 | 34090 ft | 405 kts | 303° |
| 2026-04-19 08:38 | 45.65667 | 111.55094 | 34092 ft | 405 kts | 303° |
| 2026-04-19 08:39 | 45.68917 | 111.48573 | 34081 ft | 403 kts | 303° |
| 2026-04-19 08:39 | 45.72159 | 111.42044 | 34060 ft | 404 kts | 303° |
| 2026-04-19 08:40 | 45.75405 | 111.35498 | 34062 ft | 404 kts | 303° |
| 2026-04-19 08:40 | 45.78661 | 111.28919 | 34065 ft | 404 kts | 303° |
| 2026-04-19 08:41 | 45.81892 | 111.22379 | 34076 ft | 403 kts | 303° |
| 2026-04-19 08:41 | 45.85118 | 111.15826 | 34075 ft | 404 kts | 303° |
| 2026-04-19 08:42 | 45.88344 | 111.09264 | 34058 ft | 404 kts | 303° |
| 2026-04-19 08:42 | 45.91559 | 111.02703 | 34056 ft | 404 kts | 303° |
| 2026-04-19 08:43 | 45.94788 | 110.96100 | 34051 ft | 405 kts | 303° |
| 2026-04-19 08:43 | 45.98009 | 110.89497 | 34061 ft | 404 kts | 303° |
| 2026-04-19 08:44 | 46.01197 | 110.82949 | 34064 ft | 403 kts | 303° |
| 2026-04-19 08:44 | 46.04415 | 110.76322 | 34067 ft | 403 kts | 303° |
| 2026-04-19 08:45 | 46.07600 | 110.69750 | 34073 ft | 401 kts | 304° |
| 2026-04-19 08:45 | 46.10790 | 110.63153 | 34069 ft | 403 kts | 303° |
| 2026-04-19 08:46 | 46.13957 | 110.56583 | 34073 ft | 402 kts | 304° |
| 2026-04-19 08:46 | 46.17139 | 110.49975 | 34065 ft | 402 kts | 304° |
| 2026-04-19 08:47 | 46.20306 | 110.43370 | 34071 ft | 402 kts | 304° |
| 2026-04-19 08:47 | 46.23451 | 110.36806 | 34054 ft | 388 kts | 304° |
| 2026-04-19 08:48 | 46.24951 | 110.33668 | 34058 ft | 376 kts | 303° |
| 2026-04-19 08:48 | 46.26434 | 110.30562 | 34056 ft | 376 kts | 303° |
| 2026-04-19 08:48 | 46.29390 | 110.24356 | 34060 ft | 375 kts | 303° |
| 2026-04-19 08:49 | 46.32339 | 110.18159 | 34057 ft | 375 kts | 304° |
| 2026-04-19 08:49 | 46.35274 | 110.11974 | 34051 ft | 374 kts | 304° |
| 2026-04-19 08:50 | 46.38209 | 110.05782 | 34049 ft | 374 kts | 303° |
| 2026-04-19 08:50 | 46.41140 | 109.99576 | 34042 ft | 375 kts | 304° |
| 2026-04-19 08:51 | 46.44072 | 109.93353 | 34036 ft | 376 kts | 304° |
| 2026-04-19 08:51 | 46.47002 | 109.87130 | 34035 ft | 375 kts | 303° |
| 2026-04-19 08:52 | 46.49926 | 109.80898 | 34030 ft | 375 kts | 304° |
| 2026-04-19 08:52 | 46.52849 | 109.74654 | 34039 ft | 375 kts | 304° |
| 2026-04-19 08:53 | 46.55770 | 109.68401 | 34025 ft | 375 kts | 304° |
| 2026-04-19 08:53 | 46.58697 | 109.62128 | 34039 ft | 375 kts | 304° |
| 2026-04-19 08:54 | 46.61607 | 109.55872 | 34048 ft | 375 kts | 304° |
| 2026-04-19 08:54 | 46.64515 | 109.49604 | 34052 ft | 376 kts | 304° |
| 2026-04-19 08:55 | 46.67418 | 109.43340 | 34061 ft | 376 kts | 304° |
| 2026-04-19 08:55 | 46.70340 | 109.37013 | 34059 ft | 376 kts | 304° |
| 2026-04-19 08:56 | 46.73253 | 109.30697 | 34077 ft | 376 kts | 303° |
| 2026-04-19 08:56 | 46.76135 | 109.24424 | 34063 ft | 375 kts | 304° |
| 2026-04-19 08:57 | 46.79025 | 109.18126 | 34063 ft | 375 kts | 304° |
| 2026-04-19 08:57 | 46.81921 | 109.11807 | 33844 ft | 376 kts | 304° |
| 2026-04-19 08:58 | 46.83361 | 109.08649 | 33626 ft | 374 kts | 304° |
| 2026-04-19 08:58 | 46.84791 | 109.05515 | 33412 ft | 371 kts | 304° |
| 2026-04-19 08:58 | 46.86211 | 109.02403 | 33232 ft | 369 kts | 304° |
| 2026-04-19 08:58 | 46.87620 | 108.99310 | 33072 ft | 365 kts | 304° |
| 2026-04-19 08:59 | 46.89009 | 108.96252 | 32887 ft | 361 kts | 304° |
| 2026-04-19 08:59 | 46.90386 | 108.93216 | 32716 ft | 359 kts | 304° |
| 2026-04-19 08:59 | 46.91759 | 108.90195 | 32525 ft | 358 kts | 305° |
| 2026-04-19 08:59 | 46.93125 | 108.87178 | 32360 ft | 357 kts | 305° |
| 2026-04-19 09:00 | 46.94493 | 108.84167 | 32193 ft | 356 kts | 305° |
| 2026-04-19 09:00 | 46.95853 | 108.81162 | 32024 ft | 355 kts | 305° |
| 2026-04-19 09:00 | 46.97207 | 108.78160 | 31881 ft | 355 kts | 306° |
| 2026-04-19 09:00 | 46.98560 | 108.75161 | 31716 ft | 353 kts | 306° |
| 2026-04-19 09:01 | 46.99905 | 108.72179 | 31574 ft | 352 kts | 306° |
| 2026-04-19 09:01 | 47.01247 | 108.69199 | 31414 ft | 351 kts | 306° |
| 2026-04-19 09:01 | 47.02586 | 108.66231 | 31224 ft | 349 kts | 307° |
| 2026-04-19 09:01 | 47.03921 | 108.63281 | 30893 ft | 348 kts | 307° |
| 2026-04-19 09:02 | 47.05250 | 108.60334 | 30411 ft | 349 kts | 307° |
| 2026-04-19 09:02 | 47.06587 | 108.57375 | 29849 ft | 352 kts | 307° |
| 2026-04-19 09:02 | 47.07936 | 108.54391 | 29225 ft | 355 kts | 307° |
| 2026-04-19 09:02 | 47.09293 | 108.51372 | 28518 ft | 358 kts | 307° |
| 2026-04-19 09:03 | 47.10659 | 108.48335 | 27833 ft | 360 kts | 307° |
| 2026-04-19 09:03 | 47.12037 | 108.45266 | 27144 ft | 361 kts | 307° |
| 2026-04-19 09:03 | 47.13414 | 108.42186 | 26546 ft | 360 kts | 308° |
| 2026-04-19 09:03 | 47.14772 | 108.39144 | 26082 ft | 356 kts | 308° |
| 2026-04-19 09:04 | 47.16112 | 108.36137 | 25618 ft | 351 kts | 309° |
| 2026-04-19 09:04 | 47.17437 | 108.33168 | 25167 ft | 347 kts | 308° |
| 2026-04-19 09:04 | 47.18735 | 108.30259 | 24716 ft | 343 kts | 308° |
| 2026-04-19 09:04 | 47.20030 | 108.27352 | 24251 ft | 339 kts | 309° |
| 2026-04-19 09:05 | 47.21309 | 108.24483 | 23801 ft | 335 kts | 309° |
| 2026-04-19 09:05 | 47.22569 | 108.21648 | 23361 ft | 331 kts | 309° |
| 2026-04-19 09:05 | 47.23813 | 108.18847 | 22934 ft | 326 kts | 309° |
| 2026-04-19 09:05 | 47.25045 | 108.16085 | 22513 ft | 322 kts | 309° |
| 2026-04-19 09:06 | 47.26257 | 108.13350 | 22095 ft | 318 kts | 309° |
| 2026-04-19 09:06 | 47.27455 | 108.10648 | 21679 ft | 315 kts | 310° |
| 2026-04-19 09:06 | 47.28639 | 108.07974 | 21259 ft | 311 kts | 310° |
| 2026-04-19 09:06 | 47.29813 | 108.05329 | 20841 ft | 308 kts | 310° |
| 2026-04-19 09:07 | 47.30971 | 108.02702 | 20427 ft | 305 kts | 310° |
| 2026-04-19 09:07 | 47.32121 | 108.00103 | 20018 ft | 302 kts | 310° |
| 2026-04-19 09:07 | 47.33259 | 107.97526 | 19606 ft | 300 kts | 310° |
| 2026-04-19 09:07 | 47.34386 | 107.94967 | 19194 ft | 297 kts | 310° |
| 2026-04-19 09:08 | 47.35504 | 107.92433 | 18788 ft | 294 kts | 310° |
| 2026-04-19 09:08 | 47.36610 | 107.89914 | 18372 ft | 292 kts | 310° |
| 2026-04-19 09:08 | 47.37708 | 107.87418 | 17968 ft | 290 kts | 310° |
| 2026-04-19 09:08 | 47.38795 | 107.84939 | 17565 ft | 288 kts | 310° |
| 2026-04-19 09:09 | 47.39875 | 107.82480 | 17168 ft | 286 kts | 309° |
| 2026-04-19 09:09 | 47.40949 | 107.80041 | 16774 ft | 283 kts | 309° |
| 2026-04-19 09:09 | 47.42016 | 107.77621 | 16385 ft | 281 kts | 309° |
| 2026-04-19 09:09 | 47.43076 | 107.75219 | 15990 ft | 279 kts | 309° |
| 2026-04-19 09:10 | 47.44126 | 107.72829 | 15586 ft | 278 kts | 309° |
| 2026-04-19 09:10 | 47.45171 | 107.70452 | 15181 ft | 276 kts | 309° |
| 2026-04-19 09:10 | 47.46208 | 107.68089 | 14774 ft | 274 kts | 309° |
| 2026-04-19 09:10 | 47.47239 | 107.65736 | 14370 ft | 273 kts | 309° |
| 2026-04-19 09:11 | 47.48267 | 107.63399 | 13975 ft | 271 kts | 308° |
| 2026-04-19 09:11 | 47.49286 | 107.61075 | 13583 ft | 270 kts | 307° |
| 2026-04-19 09:11 | 47.50297 | 107.58755 | 13183 ft | 269 kts | 306° |
| 2026-04-19 09:11 | 47.51189 | 107.56324 | 12770 ft | 271 kts | 300° |
| 2026-04-19 09:12 | 47.51912 | 107.53753 | 12358 ft | 273 kts | 295° |
| 2026-04-19 09:12 | 47.52462 | 107.51070 | 11946 ft | 274 kts | 291° |
| 2026-04-19 09:12 | 47.52951 | 107.48365 | 11549 ft | 273 kts | 290° |
| 2026-04-19 09:12 | 47.53433 | 107.45669 | 11142 ft | 272 kts | 289° |
| 2026-04-19 09:13 | 47.53907 | 107.42982 | 10739 ft | 270 kts | 289° |
| 2026-04-19 09:13 | 47.54377 | 107.40319 | 10401 ft | 265 kts | 288° |
| 2026-04-19 09:13 | 47.54830 | 107.37729 | 10207 ft | 255 kts | 288° |
| 2026-04-19 09:13 | 47.55259 | 107.35260 | 10109 ft | 242 kts | 289° |
| 2026-04-19 09:14 | 47.55665 | 107.32915 | 10018 ft | 229 kts | 288° |
| 2026-04-19 09:14 | 47.56044 | 107.30688 | 9940 ft | 217 kts | 288° |
| 2026-04-19 09:14 | 47.56411 | 107.28547 | 9650 ft | 214 kts | 288° |
| 2026-04-19 09:14 | 47.56777 | 107.26432 | 9340 ft | 211 kts | 288° |
| 2026-04-19 09:15 | 47.57155 | 107.24355 | 9027 ft | 208 kts | 289° |
| 2026-04-19 09:15 | 47.57576 | 107.22334 | 8758 ft | 203 kts | 289° |
| 2026-04-19 09:15 | 47.58328 | 107.18491 | 8466 ft | 184 kts | 289° |
| 2026-04-19 09:16 | 47.58645 | 107.16738 | 8450 ft | 169 kts | 288° |
| 2026-04-19 09:16 | 47.58942 | 107.15060 | 8425 ft | 169 kts | 288° |
| 2026-04-19 09:16 | 47.59235 | 107.13374 | 8307 ft | 169 kts | 287° |
| 2026-04-19 09:16 | 47.59525 | 107.11691 | 8195 ft | 169 kts | 287° |
| 2026-04-19 09:17 | 47.59814 | 107.10002 | 8017 ft | 170 kts | 288° |
| 2026-04-19 09:17 | 47.60102 | 107.08316 | 7786 ft | 169 kts | 287° |
| 2026-04-19 09:17 | 47.60389 | 107.06637 | 7558 ft | 169 kts | 287° |
| 2026-04-19 09:17 | 47.60670 | 107.04997 | 7319 ft | 160 kts | 287° |
| 2026-04-19 09:18 | 47.60941 | 107.03426 | 7100 ft | 156 kts | 287° |
| 2026-04-19 09:18 | 47.61198 | 107.01935 | 6900 ft | 140 kts | 287° |
| 2026-04-19 09:18 | 47.61427 | 107.00611 | 6722 ft | 129 kts | 287° |
| 2026-04-19 09:18 | 47.61647 | 106.99346 | 6555 ft | 126 kts | 288° |
| 2026-04-19 09:19 | 47.61865 | 106.98099 | 6392 ft | 125 kts | 287° |
| 2026-04-19 09:19 | 47.62082 | 106.96857 | 6217 ft | 125 kts | 287° |
| 2026-04-19 09:19 | 47.62298 | 106.95620 | 6058 ft | 124 kts | 287° |
| 2026-04-19 09:19 | 47.62513 | 106.94389 | 5890 ft | 123 kts | 287° |
| 2026-04-19 09:20 | 47.62728 | 106.93162 | 5723 ft | 123 kts | 287° |
| 2026-04-19 09:20 | 47.62941 | 106.91938 | 5543 ft | 123 kts | 286° |
| 2026-04-19 09:20 | 47.63161 | 106.90723 | 5386 ft | 121 kts | 288° |
| 2026-04-19 09:20 | 47.63382 | 106.89511 | 5194 ft | 121 kts | 288° |
| 2026-04-19 09:21 | 47.63612 | 106.88309 | 5065 ft | 121 kts | 287° |
| 2026-04-19 09:21 | 47.63823 | 106.87103 | 4890 ft | 121 kts | 286° |
| 2026-04-19 09:21 | 47.64023 | 106.85901 | 4712 ft | 120 kts | 285° |
| 2026-04-19 09:21 | 47.64219 | 106.84699 | 4567 ft | 120 kts | 284° |
| 2026-04-19 09:22 | 47.64421 | 106.83519 | 4476 ft | 111 kts | 285° |
| 2026-04-19 09:22 | 47.64580 | 106.82645 | 4474 ft | 63 kts | 282° |
| 2026-04-19 09:22 | 47.64655 | 106.82207 | 4473 ft | 35 kts | 284° |
| 2026-04-19 09:22 | 47.64697 | 106.82022 | 4475 ft | 10 kts | 320° |
| 2026-04-19 09:23 | 47.64740 | 106.82011 | 4477 ft | 3 kts | 10° |
| 2026-04-19 09:23 | 47.64748 | 106.82014 | 4478 ft | 0 kts | 14° |
| 2026-04-19 09:23 | 47.64753 | 106.82016 | 4478 ft | 2 kts | 13° |
| 2026-04-19 09:23 | 47.64758 | 106.82018 | 4479 ft | 0 kts | 12° |
| 2026-04-19 09:24 | 47.64766 | 106.82021 | 4479 ft | 3 kts | 11° |
| 2026-04-19 09:24 | 47.64794 | 106.82031 | 4481 ft | 3 kts | 14° |
| 2026-04-19 09:24 | 47.64833 | 106.82046 | 4486 ft | 7 kts | 15° |
| 2026-04-19 09:24 | 47.64870 | 106.82060 | 4490 ft | 7 kts | 13° |
| 2026-04-19 09:25 | 47.64930 | 106.82088 | 4495 ft | 6 kts | 24° |
| 2026-04-19 09:25 | 47.64965 | 106.82112 | 4497 ft | 5 kts | 24° |
| 2026-04-19 09:25 | 47.64987 | 106.82127 | 4499 ft | 1 kts | 23° |
| 2026-04-19 09:25 | 47.65002 | 106.82137 | 4501 ft | 3 kts | 24° |
| 2026-04-19 09:26 | 47.65012 | 106.82144 | 4503 ft | 0 kts | 24° |
| 2026-04-19 09:26 | 47.65011 | 106.82143 | 4502 ft | 0 kts | 23° |
| 2026-04-19 09:46 | 47.65009 | 106.82143 | 4503 ft | 0 kts | 22° |
| 2026-04-19 09:46 | 47.64998 | 106.82135 | 4501 ft | 2 kts | 33° |
| 2026-04-19 09:46 | 47.64985 | 106.82124 | 4500 ft | 2 kts | 27° |
| 2026-04-19 09:47 | 47.64973 | 106.82116 | 4498 ft | 1 kts | 28° |
| 2026-04-19 09:47 | 47.64961 | 106.82107 | 4497 ft | 2 kts | 25° |
| 2026-04-19 09:47 | 47.64948 | 106.82095 | 4496 ft | 2 kts | 44° |
| 2026-04-19 09:47 | 47.64938 | 106.82078 | 4495 ft | 2 kts | 56° |